Time;durP1;ratioP1;P1;durP2;ratioP2;P2;SDS_P1;SDS_P2;PMS_P1;PMS_P2;Temp;Humidity;BMP_temperature;BMP_pressure;BME280_temperature;BME280_humidity;BME280_pressure;Samples;Min_cycle;Max_cycle;Signal;HPM_P1;HPM_P2
2022/09/18 00:01:15;;;;;;;1.23;1.05;;;;;;;;;;5065421;28;20413;-82
2022/09/18 00:03:40;;;;;;;0.93;0.93;;;;;;;;;;5066590;28;20028;-71
2022/09/18 00:06:08;;;;;;;1.15;1.08;;;;;;;;;;5066965;28;20028;-71
2022/09/18 00:08:33;;;;;;;1.98;1.20;;;;;;;;;;5067253;28;20035;-78
2022/09/18 00:11:02;;;;;;;1.67;1.23;;;;;;;;;;5067729;28;20025;-77
2022/09/18 00:13:27;;;;;;;1.35;1.13;;;;;;;;;;5067229;28;20020;-71
2022/09/18 00:15:53;;;;;;;1.48;1.38;;;;;;;;;;5066139;28;20017;-73
2022/09/18 00:18:19;;;;;;;1.30;1.30;;;;;;;;;;5066399;28;20064;-76
2022/09/18 00:20:44;;;;;;;1.50;1.40;;;;;;;;;;5066895;28;20056;-74
2022/09/18 00:23:10;;;;;;;1.95;1.40;;;;;;;;;;5066997;28;20095;-73
2022/09/18 00:25:35;;;;;;;1.17;1.17;;;;;;;;;;5061206;28;20089;-74
2022/09/18 00:28:00;;;;;;;1.80;1.70;;;;;;;;;;5066068;28;20028;-72
2022/09/18 00:30:26;;;;;;;1.92;1.77;;;;;;;;;;5066976;28;20028;-80
2022/09/18 00:32:51;;;;;;;1.75;1.70;;;;;;;;;;5066736;28;20100;-72
2022/09/18 00:35:16;;;;;;;1.92;1.83;;;;;;;;;;5066564;28;20032;-73
2022/09/18 00:37:42;;;;;;;2.35;2.25;;;;;;;;;;5067169;28;20107;-73
2022/09/18 00:40:07;;;;;;;2.30;2.10;;;;;;;;;;5067014;28;20024;-73
2022/09/18 00:42:33;;;;;;;2.38;2.20;;;;;;;;;;5066445;28;20024;-71
2022/09/18 00:44:58;;;;;;;3.75;2.58;;;;;;;;;;5066137;28;20056;-72
2022/09/18 00:47:30;;;;;;;2.95;2.75;;;;;;;;;;5066840;28;20115;-77
2022/09/18 00:50:02;;;;;;;2.65;2.40;;;;;;;;;;5066460;28;20035;-73
2022/09/18 00:53:00;;;;;;;2.80;2.60;;;;;;;;;;5063384;28;20032;-73
2022/09/18 00:55:31;;;;;;;2.70;2.60;;;;;;;;;;4982519;28;20031;-72
2022/09/18 00:57:57;;;;;;;2.28;2.17;;;;;;;;;;4978940;28;20388;-72
2022/09/18 01:00:22;;;;;;;2.85;2.65;;;;;;;;;;4983842;28;20430;-72
2022/09/18 01:02:48;;;;;;;3.50;3.20;;;;;;;;;;4984088;28;20097;-71
2022/09/18 01:05:15;;;;;;;3.63;3.42;;;;;;;;;;4984777;28;20114;-75
2022/09/18 01:07:43;;;;;;;3.25;3.05;;;;;;;;;;4984521;28;20177;-75
2022/09/18 01:10:27;;;;;;;3.20;3.00;;;;;;;;;;4984388;28;20069;-72
2022/09/18 01:12:55;;;;;;;3.75;3.53;;;;;;;;;;4984775;28;20038;-73
2022/09/18 01:15:26;;;;;;;4.18;3.90;;;;;;;;;;4984132;28;20363;-71
2022/09/18 01:17:51;;;;;;;3.90;3.50;;;;;;;;;;4980939;28;20042;-72
2022/09/18 01:20:20;;;;;;;4.10;3.80;;;;;;;;;;4983650;28;20037;-71
2022/09/18 01:22:48;;;;;;;3.90;3.65;;;;;;;;;;4984227;28;20168;-74
2022/09/18 01:25:13;;;;;;;4.15;3.78;;;;;;;;;;4983830;28;20053;-71
2022/09/18 01:27:51;;;;;;;3.58;3.38;;;;;;;;;;4984005;28;20370;-70
2022/09/18 01:30:16;;;;;;;4.55;4.25;;;;;;;;;;5000660;28;20043;-71
2022/09/18 01:32:54;;;;;;;4.43;4.10;;;;;;;;;;5065794;28;20025;-71
2022/09/18 01:35:20;;;;;;;4.90;4.60;;;;;;;;;;5065842;28;20158;-74
2022/09/18 01:38:00;;;;;;;4.43;4.13;;;;;;;;;;5065568;28;20111;-73
2022/09/18 01:40:41;;;;;;;5.05;4.75;;;;;;;;;;5065663;28;20380;-71
2022/09/18 01:43:08;;;;;;;5.10;4.70;;;;;;;;;;5065598;28;20029;-79
2022/09/18 01:45:35;;;;;;;4.68;4.35;;;;;;;;;;5066008;28;20052;-73
2022/09/18 01:48:05;;;;;;;5.07;4.78;;;;;;;;;;5066050;28;20047;-73
2022/09/18 01:50:30;;;;;;;;;;;;;;;;;;5066604;28;20070;-71
2022/09/18 01:52:56;;;;;;;4.53;4.23;;;;;;;;;;5065177;28;19917;-71
2022/09/18 01:55:25;;;;;;;4.90;4.60;;;;;;;;;;5058428;28;20017;-71
2022/09/18 01:57:59;;;;;;;6.03;5.53;;;;;;;;;;5065592;28;20130;-73
2022/09/18 02:00:27;;;;;;;4.97;4.68;;;;;;;;;;5065508;28;20029;-74
2022/09/18 02:02:56;;;;;;;5.65;5.15;;;;;;;;;;5065431;28;20032;-71
2022/09/18 02:05:34;;;;;;;4.68;4.38;;;;;;;;;;5065803;28;20048;-76
2022/09/18 02:08:15;;;;;;;4.55;4.25;;;;;;;;;;5060956;28;20040;-72
2022/09/18 02:10:45;;;;;;;4.00;3.80;;;;;;;;;;5055388;28;20020;-76
2022/09/18 02:13:13;;;;;;;4.05;3.75;;;;;;;;;;5065994;28;20491;-71
2022/09/18 02:15:40;;;;;;;3.72;3.42;;;;;;;;;;5047722;28;20032;-72
2022/09/18 02:18:09;;;;;;;4.05;3.75;;;;;;;;;;5065907;28;20040;-72
2022/09/18 02:20:35;;;;;;;3.87;3.57;;;;;;;;;;5057914;28;20032;-74
2022/09/18 02:23:03;;;;;;;4.30;4.00;;;;;;;;;;5065033;28;20013;-71
2022/09/18 02:25:31;;;;;;;4.20;3.90;;;;;;;;;;5049113;28;20021;-79
2022/09/18 02:27:56;;;;;;;4.05;3.80;;;;;;;;;;5045869;28;20025;-71
2022/09/18 02:30:22;;;;;;;5.32;4.90;;;;;;;;;;5049004;28;20025;-74
2022/09/18 02:32:51;;;;;;;5.10;4.70;;;;;;;;;;5049703;28;20025;-72
2022/09/18 02:35:17;;;;;;;4.47;4.18;;;;;;;;;;5048675;28;20024;-74
2022/09/18 02:37:51;;;;;;;5.20;4.70;;;;;;;;;;5049110;28;20159;-71
2022/09/18 02:40:19;;;;;;;5.35;4.95;;;;;;;;;;5047651;28;20403;-74
2022/09/18 02:43:05;;;;;;;5.78;5.38;;;;;;;;;;5046788;28;20340;-72
2022/09/18 02:45:35;;;;;;;5.57;5.07;;;;;;;;;;5029909;28;20060;-77
2022/09/18 02:48:08;;;;;;;5.60;5.20;;;;;;;;;;5048777;28;20029;-74
2022/09/18 02:50:36;;;;;;;5.32;4.85;;;;;;;;;;5049230;28;20032;-74
2022/09/18 02:53:08;;;;;;;5.90;5.43;;;;;;;;;;5048972;28;20029;-71
2022/09/18 02:55:49;;;;;;;5.10;4.70;;;;;;;;;;5048381;28;20090;-71
2022/09/18 02:58:21;;;;;;;4.30;4.00;;;;;;;;;;5048780;28;20060;-72
2022/09/18 03:00:48;;;;;;;4.80;4.50;;;;;;;;;;5048812;28;20021;-70
2022/09/18 03:03:14;;;;;;;5.22;4.82;;;;;;;;;;5048308;28;20021;-74
2022/09/18 03:05:39;;;;;;;5.18;4.78;;;;;;;;;;5048643;28;20086;-78
2022/09/18 03:08:04;;;;;;;5.03;4.53;;;;;;;;;;5048406;28;20024;-75
2022/09/18 03:10:30;;;;;;;5.00;4.60;;;;;;;;;;5048135;28;20028;-73
2022/09/18 03:12:55;;;;;;;4.07;3.78;;;;;;;;;;5048169;28;20365;-73
2022/09/18 03:15:21;;;;;;;4.40;4.10;;;;;;;;;;5048096;28;20346;-72
2022/09/18 03:17:46;;;;;;;6.18;4.05;;;;;;;;;;5048236;28;20025;-72
2022/09/18 03:20:11;;;;;;;4.00;3.70;;;;;;;;;;5048470;28;20032;-73
2022/09/18 03:22:37;;;;;;;4.72;4.32;;;;;;;;;;5048196;28;20035;-73
2022/09/18 03:25:02;;;;;;;4.40;4.10;;;;;;;;;;5048682;28;20025;-74
2022/09/18 03:27:28;;;;;;;3.90;3.60;;;;;;;;;;5047999;28;20489;-73
2022/09/18 03:29:53;;;;;;;3.13;2.83;;;;;;;;;;5047195;28;20045;-74
2022/09/18 03:32:19;;;;;;;2.47;2.28;;;;;;;;;;5047758;28;20021;-72
2022/09/18 03:34:44;;;;;;;3.05;2.78;;;;;;;;;;5048410;28;20428;-73
2022/09/18 03:37:09;;;;;;;2.70;2.50;;;;;;;;;;5048389;28;20047;-73
2022/09/18 03:39:35;;;;;;;2.25;2.00;;;;;;;;;;5048042;28;20028;-75
2022/09/18 03:42:00;;;;;;;2.47;2.28;;;;;;;;;;5048066;28;20775;-75
2022/09/18 03:44:25;;;;;;;2.45;2.20;;;;;;;;;;5047660;28;20057;-74
2022/09/18 03:46:51;;;;;;;2.20;2.10;;;;;;;;;;5041946;28;20100;-73
2022/09/18 03:49:16;;;;;;;2.28;2.10;;;;;;;;;;5045966;28;20450;-73
2022/09/18 03:51:42;;;;;;;2.20;2.10;;;;;;;;;;5047813;28;20025;-72
2022/09/18 03:54:07;;;;;;;2.10;1.90;;;;;;;;;;5045693;28;20044;-73
2022/09/18 03:56:32;;;;;;;2.78;2.15;;;;;;;;;;5039961;28;20031;-73
2022/09/18 03:58:58;;;;;;;3.15;2.20;;;;;;;;;;5047491;28;20043;-73
2022/09/18 04:01:23;;;;;;;1.92;1.80;;;;;;;;;;5047155;28;20083;-73
2022/09/18 04:03:48;;;;;;;1.60;1.50;;;;;;;;;;5047231;28;20432;-73
2022/09/18 04:06:14;;;;;;;1.80;1.70;;;;;;;;;;5046979;28;20021;-75
2022/09/18 04:08:39;;;;;;;2.10;1.90;;;;;;;;;;5052178;28;20024;-74
2022/09/18 04:11:05;;;;;;;1.67;1.58;;;;;;;;;;5062339;28;20352;-73
2022/09/18 04:13:31;;;;;;;1.77;1.67;;;;;;;;;;5067246;28;20028;-75
2022/09/18 04:15:56;;;;;;;2.53;1.83;;;;;;;;;;5066895;28;20016;-74
2022/09/18 04:18:21;;;;;;;3.30;1.90;;;;;;;;;;5066883;28;20115;-73
2022/09/18 04:20:47;;;;;;;1.90;1.80;;;;;;;;;;5066817;28;20028;-76
2022/09/18 04:23:13;;;;;;;2.15;1.95;;;;;;;;;;5066443;28;20412;-73
2022/09/18 04:25:39;;;;;;;2.83;1.70;;;;;;;;;;5066989;28;20025;-73
2022/09/18 04:28:05;;;;;;;2.35;2.05;;;;;;;;;;5058228;28;20031;-74
2022/09/18 04:30:30;;;;;;;2.85;1.75;;;;;;;;;;5066828;28;20347;-72
2022/09/18 04:32:55;;;;;;;3.35;2.13;;;;;;;;;;5066957;28;20025;-73
2022/09/18 04:35:21;;;;;;;2.53;2.00;;;;;;;;;;5066973;28;20052;-77
2022/09/18 04:37:46;;;;;;;4.15;2.60;;;;;;;;;;5066629;28;20024;-76
2022/09/18 04:40:11;;;;;;;2.78;2.58;;;;;;;;;;5066779;28;20028;-74
2022/09/18 04:42:37;;;;;;;3.55;2.50;;;;;;;;;;5066268;28;20033;-74
2022/09/18 04:45:03;;;;;;;2.90;2.70;;;;;;;;;;5066906;28;20048;-74
2022/09/18 04:47:28;;;;;;;2.95;2.75;;;;;;;;;;5066370;28;20037;-74
2022/09/18 04:49:54;;;;;;;3.50;2.70;;;;;;;;;;5066499;28;20157;-73
2022/09/18 04:52:19;;;;;;;3.40;3.10;;;;;;;;;;5053619;28;20293;-75
2022/09/18 04:54:44;;;;;;;3.65;3.35;;;;;;;;;;5039353;28;20029;-73
2022/09/18 04:57:10;;;;;;;3.38;3.17;;;;;;;;;;5036837;28;20024;-73
2022/09/18 04:59:35;;;;;;;2.97;2.67;;;;;;;;;;5036772;28;20068;-74
2022/09/18 05:02:00;;;;;;;3.42;3.13;;;;;;;;;;5042607;28;20016;-74
2022/09/18 05:04:26;;;;;;;3.65;3.35;;;;;;;;;;5045992;28;20017;-71
2022/09/18 05:06:51;;;;;;;3.92;3.60;;;;;;;;;;5045676;28;20032;-72
2022/09/18 05:09:16;;;;;;;4.07;3.78;;;;;;;;;;5044547;28;20112;-76
2022/09/18 05:11:42;;;;;;;3.63;3.33;;;;;;;;;;5041959;28;20104;-75
2022/09/18 05:14:08;;;;;;;4.40;4.05;;;;;;;;;;5036564;28;20028;-74
2022/09/18 05:16:33;;;;;;;4.68;4.20;;;;;;;;;;5037333;28;20029;-74
2022/09/18 05:18:58;;;;;;;4.43;3.65;;;;;;;;;;5035788;28;20094;-72
2022/09/18 05:21:24;;;;;;;4.20;3.90;;;;;;;;;;5036973;28;20355;-72
2022/09/18 05:23:49;;;;;;;4.35;3.95;;;;;;;;;;5051190;28;20077;-72
2022/09/18 05:26:15;;;;;;;4.30;4.00;;;;;;;;;;5053377;28;20031;-73
2022/09/18 05:28:40;;;;;;;3.92;3.65;;;;;;;;;;5057202;28;20060;-74
2022/09/18 05:31:06;;;;;;;4.57;4.28;;;;;;;;;;5049916;28;20025;-74
2022/09/18 05:33:31;;;;;;;4.60;4.20;;;;;;;;;;5045212;28;20017;-78
2022/09/18 05:35:57;;;;;;;4.80;4.50;;;;;;;;;;5045009;28;20456;-76
2022/09/18 05:38:23;;;;;;;4.97;4.47;;;;;;;;;;5045590;28;20076;-75
2022/09/18 05:40:48;;;;;;;4.90;4.53;;;;;;;;;;5045784;28;20112;-71
2022/09/18 05:43:14;;;;;;;5.32;4.93;;;;;;;;;;5044433;28;20029;-73
2022/09/18 05:45:39;;;;;;;5.18;4.78;;;;;;;;;;5037587;28;20025;-73
2022/09/18 05:48:05;;;;;;;5.18;4.78;;;;;;;;;;5040715;28;20025;-72
2022/09/18 05:50:31;;;;;;;4.60;4.15;;;;;;;;;;5042718;28;20024;-72
2022/09/18 05:52:56;;;;;;;4.57;4.28;;;;;;;;;;5044262;28;20428;-74
2022/09/18 05:55:22;;;;;;;4.68;4.38;;;;;;;;;;5047447;28;20693;-72
2022/09/18 05:57:50;;;;;;;6.13;4.72;;;;;;;;;;5050440;28;20379;-73
2022/09/18 06:00:15;;;;;;;5.25;4.75;;;;;;;;;;5047931;28;20030;-71
2022/09/18 06:02:41;;;;;;;5.07;4.68;;;;;;;;;;5058384;28;20032;-72
2022/09/18 06:05:06;;;;;;;5.18;4.80;;;;;;;;;;5061303;28;20023;-71
2022/09/18 06:07:32;;;;;;;5.03;4.65;;;;;;;;;;5062879;28;20416;-72
2022/09/18 06:09:58;;;;;;;5.35;4.85;;;;;;;;;;5069310;28;20048;-72
2022/09/18 06:12:23;;;;;;;5.00;4.63;;;;;;;;;;5065023;28;20017;-72
2022/09/18 06:14:48;;;;;;;5.38;4.97;;;;;;;;;;5058984;28;20416;-73
2022/09/18 06:17:14;;;;;;;6.35;5.75;;;;;;;;;;5061061;28;20561;-79
2022/09/18 06:19:39;;;;;;;14.40;10.90;;;;;;;;;;5061767;28;20067;-76
2022/09/18 06:22:04;;;;;;;10.27;9.35;;;;;;;;;;5062184;28;20325;-72
2022/09/18 06:24:30;;;;;;;7.80;7.05;;;;;;;;;;5065146;28;20173;-72
2022/09/18 06:26:55;;;;;;;5.65;5.25;;;;;;;;;;5064096;28;20043;-79
2022/09/18 06:29:20;;;;;;;6.05;5.55;;;;;;;;;;5055712;28;20025;-73
2022/09/18 06:31:46;;;;;;;15.45;13.98;;;;;;;;;;5054944;28;20027;-71
2022/09/18 06:34:11;;;;;;;7.38;6.68;;;;;;;;;;5061690;28;20135;-75
2022/09/18 06:36:36;;;;;;;6.03;5.43;;;;;;;;;;5061230;28;20028;-73
2022/09/18 06:39:02;;;;;;;15.32;11.88;;;;;;;;;;5058474;28;20097;-75
2022/09/18 06:41:27;;;;;;;23.90;19.55;;;;;;;;;;5066170;28;20048;-72
2022/09/18 06:43:53;;;;;;;8.35;7.53;;;;;;;;;;5062190;28;20105;-74
2022/09/18 06:46:18;;;;;;;5.55;4.95;;;;;;;;;;5067155;28;20027;-73
2022/09/18 06:48:43;;;;;;;4.97;4.43;;;;;;;;;;5068047;28;20110;-72
2022/09/18 06:51:09;;;;;;;4.47;4.18;;;;;;;;;;5066735;28;20085;-78
2022/09/18 06:53:36;;;;;;;4.70;4.20;;;;;;;;;;5066446;28;20432;-77
2022/09/18 06:56:02;;;;;;;3.10;2.90;;;;;;;;;;5067562;28;20036;-73
2022/09/18 06:58:27;;;;;;;3.38;3.17;;;;;;;;;;5068082;28;20028;-72
2022/09/18 07:00:53;;;;;;;3.42;3.10;;;;;;;;;;5068043;28;20025;-74
2022/09/18 07:03:18;;;;;;;4.85;4.45;;;;;;;;;;5068410;28;20059;-72
2022/09/18 07:05:44;;;;;;;10.82;9.73;;;;;;;;;;5068556;28;20025;-82
2022/09/18 07:08:10;;;;;;;8.98;8.20;;;;;;;;;;5068276;28;20033;-73
2022/09/18 07:10:35;;;;;;;4.45;4.05;;;;;;;;;;5068440;28;20016;-82
2022/09/18 07:13:01;;;;;;;4.38;4.00;;;;;;;;;;5068105;28;20025;-74
2022/09/18 07:15:27;;;;;;;5.03;4.57;;;;;;;;;;5068131;28;20060;-73
2022/09/18 07:17:56;;;;;;;7.28;6.57;;;;;;;;;;5069017;28;20343;-75
2022/09/18 07:20:21;;;;;;;7.85;7.15;;;;;;;;;;5068736;28;20463;-74
2022/09/18 07:22:54;;;;;;;3.67;3.38;;;;;;;;;;5068265;28;20089;-73
2022/09/18 07:25:19;;;;;;;3.33;3.13;;;;;;;;;;5068209;28;20020;-76
2022/09/18 07:27:44;;;;;;;3.50;3.20;;;;;;;;;;5068527;28;20446;-72
2022/09/18 07:30:10;;;;;;;3.28;3.00;;;;;;;;;;5068234;28;20415;-72
2022/09/18 07:32:36;;;;;;;3.50;2.95;;;;;;;;;;5068542;28;20025;-73
2022/09/18 07:35:01;;;;;;;3.13;2.90;;;;;;;;;;5068021;28;20043;-71
2022/09/18 07:37:26;;;;;;;5.53;4.22;;;;;;;;;;5067497;28;20059;-73
2022/09/18 07:39:52;;;;;;;3.80;3.38;;;;;;;;;;5068164;28;20028;-74
2022/09/18 07:42:17;;;;;;;4.40;4.05;;;;;;;;;;5067661;28;20032;-73
2022/09/18 07:44:42;;;;;;;3.65;3.35;;;;;;;;;;5067838;28;20112;-82
2022/09/18 07:47:08;;;;;;;3.40;3.10;;;;;;;;;;5068161;28;20541;-80
2022/09/18 07:49:33;;;;;;;3.80;3.50;;;;;;;;;;5067399;28;20460;-76
2022/09/18 07:52:00;;;;;;;5.75;4.90;;;;;;;;;;5067959;28;20021;-76
2022/09/18 07:54:26;;;;;;;3.60;3.30;;;;;;;;;;5067661;28;20032;-73
2022/09/18 07:56:51;;;;;;;4.25;3.95;;;;;;;;;;5067776;28;20028;-74
2022/09/18 07:59:16;;;;;;;4.80;3.78;;;;;;;;;;5067180;28;20028;-72
2022/09/18 08:01:42;;;;;;;5.00;4.50;;;;;;;;;;5067501;28;20028;-72
2022/09/18 08:04:08;;;;;;;6.25;4.53;;;;;;;;;;5067420;28;20035;-73
2022/09/18 08:06:33;;;;;;;3.15;2.85;;;;;;;;;;5067406;28;20026;-81
2022/09/18 08:08:59;;;;;;;5.15;3.13;;;;;;;;;;5067413;28;20029;-80
2022/09/18 08:11:24;;;;;;;14.27;9.65;;;;;;;;;;5066874;28;20024;-75
2022/09/18 08:13:50;;;;;;;7.40;5.30;;;;;;;;;;5067234;28;20025;-73
2022/09/18 08:16:15;;;;;;;22.75;12.55;;;;;;;;;;5067196;28;20024;-75
2022/09/18 08:18:40;;;;;;;17.45;12.18;;;;;;;;;;5066786;28;20060;-73
2022/09/18 08:21:06;;;;;;;6.53;3.78;;;;;;;;;;5067715;28;20507;-72
2022/09/18 08:23:32;;;;;;;3.60;3.15;;;;;;;;;;5067040;28;20059;-73
2022/09/18 08:26:01;;;;;;;8.85;5.18;;;;;;;;;;5066033;28;20109;-73
2022/09/18 08:28:27;;;;;;;4.28;3.60;;;;;;;;;;5067345;28;20463;-73
2022/09/18 08:30:53;;;;;;;5.72;2.65;;;;;;;;;;5065830;28;20411;-73
2022/09/18 08:33:18;;;;;;;7.32;5.40;;;;;;;;;;5066977;28;20016;-72
2022/09/18 08:35:44;;;;;;;7.18;5.15;;;;;;;;;;5082949;28;20086;-73
2022/09/18 08:38:10;;;;;;;5.63;4.80;;;;;;;;;;5067403;28;20419;-72
2022/09/18 08:40:42;;;;;;;5.90;4.82;;;;;;;;;;5066494;28;20037;-80
2022/09/18 08:43:18;;;;;;;4.82;4.07;;;;;;;;;;5066506;28;20021;-79
2022/09/18 08:45:59;;;;;;;6.80;4.90;;;;;;;;;;5066555;28;20415;-74
2022/09/18 08:48:29;;;;;;;4.28;2.85;;;;;;;;;;5067269;28;20024;-74
2022/09/18 08:51:01;;;;;;;8.00;5.20;;;;;;;;;;5066994;28;20443;-73
2022/09/18 08:53:33;;;;;;;17.02;13.43;;;;;;;;;;5066402;28;20027;-72
2022/09/18 08:55:59;;;;;;;19.77;16.05;;;;;;;;;;5066471;28;20081;-72
2022/09/18 08:58:27;;;;;;;8.68;7.10;;;;;;;;;;5066248;28;20032;-74
2022/09/18 09:00:55;;;;;;;5.35;4.50;;;;;;;;;;5066021;28;20024;-72
2022/09/18 09:03:21;;;;;;;5.75;4.30;;;;;;;;;;5066872;28;20033;-74
2022/09/18 09:05:55;;;;;;;10.00;6.13;;;;;;;;;;5066619;28;20098;-72
2022/09/18 09:08:28;;;;;;;9.00;6.35;;;;;;;;;;5065686;28;20359;-71
2022/09/18 09:11:02;;;;;;;7.00;4.80;;;;;;;;;;5066492;28;20078;-74
2022/09/18 09:13:27;;;;;;;5.75;4.65;;;;;;;;;;5065949;28;20051;-73
2022/09/18 09:16:05;;;;;;;5.03;4.50;;;;;;;;;;5065745;28;20448;-73
2022/09/18 09:18:34;;;;;;;5.97;5.38;;;;;;;;;;5066462;28;20025;-76
2022/09/18 09:21:09;;;;;;;5.13;4.40;;;;;;;;;;5082167;28;20108;-72
2022/09/18 09:23:57;;;;;;;2.92;2.50;;;;;;;;;;5066252;28;20020;-82
2022/09/18 09:26:24;;;;;;;5.93;2.60;;;;;;;;;;5046323;28;20040;-75
2022/09/18 09:28:58;;;;;;;5.05;2.85;;;;;;;;;;5066058;28;20031;-75
2022/09/18 09:31:31;;;;;;;3.42;3.13;;;;;;;;;;5066010;28;20021;-75
2022/09/18 09:33:59;;;;;;;4.88;3.05;;;;;;;;;;5066202;28;20123;-75
2022/09/18 09:36:26;;;;;;;3.17;2.28;;;;;;;;;;5065506;28;20047;-72
2022/09/18 09:39:12;;;;;;;2.35;2.15;;;;;;;;;;5066012;28;20037;-73
2022/09/18 09:41:43;;;;;;;2.22;1.98;;;;;;;;;;5065705;28;20290;-72
2022/09/18 09:44:18;;;;;;;2.47;2.10;;;;;;;;;;5065729;28;20093;-72
2022/09/18 09:46:52;;;;;;;2.00;1.85;;;;;;;;;;5066321;28;20028;-80
2022/09/18 09:49:25;;;;;;;3.40;2.30;;;;;;;;;;5065497;28;20173;-73
2022/09/18 09:52:06;;;;;;;3.92;2.47;;;;;;;;;;5065748;28;20089;-73
2022/09/18 09:54:32;;;;;;;2.90;2.05;;;;;;;;;;5066248;28;20024;-73
2022/09/18 09:57:09;;;;;;;3.05;2.10;;;;;;;;;;5065693;28;20348;-73
2022/09/18 09:59:44;;;;;;;3.03;1.75;;;;;;;;;;5065842;28;20525;-73
2022/09/18 10:02:12;;;;;;;3.58;1.63;;;;;;;;;;5065227;28;20471;-80
2022/09/18 10:04:43;;;;;;;2.75;2.00;;;;;;;;;;5065330;28;20027;-72
2022/09/18 10:07:09;;;;;;;3.17;2.20;;;;;;;;;;5065665;28;20107;-72
2022/09/18 10:09:51;;;;;;;2.60;1.70;;;;;;;;;;5065343;28;20115;-80
2022/09/18 10:12:20;;;;;;;3.88;2.75;;;;;;;;;;5065975;28;20025;-78
2022/09/18 10:14:46;;;;;;;2.95;1.60;;;;;;;;;;5065492;28;20085;-73
2022/09/18 10:17:14;;;;;;;2.88;1.92;;;;;;;;;;5065182;28;20024;-73
2022/09/18 10:19:41;;;;;;;15.35;8.70;;;;;;;;;;5065825;28;20020;-75
2022/09/18 10:22:08;;;;;;;6.25;2.40;;;;;;;;;;5065728;28;20078;-74
2022/09/18 10:24:41;;;;;;;5.78;3.30;;;;;;;;;;5065256;28;20032;-72
2022/09/18 10:27:10;;;;;;;3.00;1.85;;;;;;;;;;5065342;28;20473;-74
2022/09/18 10:29:35;;;;;;;;;;;;;;;;;;5065726;28;20048;-78
2022/09/18 10:32:01;;;;;;;10.53;8.27;;;;;;;;;;5065273;28;19955;-75
2022/09/18 10:34:47;;;;;;;4.78;3.28;;;;;;;;;;5065783;28;20051;-82
2022/09/18 10:37:17;;;;;;;4.00;1.60;;;;;;;;;;5065278;28;20502;-71
2022/09/18 10:39:52;;;;;;;4.38;1.60;;;;;;;;;;5064979;28;20028;-72
2022/09/18 10:42:20;;;;;;;2.38;1.20;;;;;;;;;;5065177;28;20042;-77
2022/09/18 10:44:52;;;;;;;8.10;1.90;;;;;;;;;;5065153;28;20135;-73
2022/09/18 10:47:24;;;;;;;2.53;1.50;;;;;;;;;;5065063;28;20031;-72
2022/09/18 10:49:52;;;;;;;3.15;1.42;;;;;;;;;;5068964;28;20443;-75
2022/09/18 10:52:30;;;;;;;2.40;1.30;;;;;;;;;;5068590;28;20031;-73
2022/09/18 10:54:57;;;;;;;2.95;1.10;;;;;;;;;;5068988;28;20047;-73
2022/09/18 10:57:30;;;;;;;1.10;1.00;;;;;;;;;;5068659;28;20120;-73
2022/09/18 10:59:55;;;;;;;1.27;0.90;;;;;;;;;;5069165;28;20028;-72
2022/09/18 11:02:23;;;;;;;2.25;1.30;;;;;;;;;;5069022;28;20111;-75
2022/09/18 11:04:49;;;;;;;1.27;1.10;;;;;;;;;;5068319;28;20089;-75
2022/09/18 11:07:16;;;;;;;1.13;0.88;;;;;;;;;;5068247;28;20108;-78
2022/09/18 11:09:42;;;;;;;5.03;3.30;;;;;;;;;;5068188;28;20031;-79
2022/09/18 11:12:13;;;;;;;10.07;6.03;;;;;;;;;;5068640;28;20036;-73
2022/09/18 11:14:40;;;;;;;20.08;10.13;;;;;;;;;;5068036;28;20021;-73
2022/09/18 11:17:06;;;;;;;22.48;11.43;;;;;;;;;;5068444;28;20025;-73
2022/09/18 11:19:36;;;;;;;3.20;1.25;;;;;;;;;;5068221;28;20047;-76
2022/09/18 11:22:04;;;;;;;1.45;1.08;;;;;;;;;;5068580;28;20096;-74
2022/09/18 11:24:32;;;;;;;1.83;1.60;;;;;;;;;;5068293;28;20400;-73
2022/09/18 11:26:59;;;;;;;1.20;0.82;;;;;;;;;;5068575;28;20039;-72
2022/09/18 11:29:38;;;;;;;2.47;1.83;;;;;;;;;;5068906;28;20032;-72
2022/09/18 11:32:24;;;;;;;1.77;1.52;;;;;;;;;;5068152;28;20039;-72
2022/09/18 11:34:51;;;;;;;2.70;1.48;;;;;;;;;;5067596;28;20043;-74
2022/09/18 11:37:42;;;;;;;2.88;2.65;;;;;;;;;;5067744;28;20059;-76
2022/09/18 11:40:20;;;;;;;2.42;2.22;;;;;;;;;;5065694;28;20094;-73
2022/09/18 11:42:47;;;;;;;2.97;2.63;;;;;;;;;;5067992;28;20071;-74
2022/09/18 11:45:24;;;;;;;2.88;1.10;;;;;;;;;;5067481;28;20105;-79
2022/09/18 11:47:59;;;;;;;4.47;1.20;;;;;;;;;;5067910;28;20031;-81
2022/09/18 11:50:28;;;;;;;1.48;0.98;;;;;;;;;;5067640;28;20343;-72
2022/09/18 11:52:55;;;;;;;1.42;0.90;;;;;;;;;;5068034;28;20440;-73
2022/09/18 11:55:37;;;;;;;0.70;0.70;;;;;;;;;;5067487;28;20032;-72
2022/09/18 11:58:35;;;;;;;2.17;0.63;;;;;;;;;;5067089;28;20029;-72
2022/09/18 12:01:06;;;;;;;0.88;0.73;;;;;;;;;;5048962;28;20089;-79
2022/09/18 12:03:39;;;;;;;1.17;0.60;;;;;;;;;;5067261;28;20120;-75
2022/09/18 12:06:11;;;;;;;2.67;1.08;;;;;;;;;;5067651;28;20025;-73
2022/09/18 12:08:37;;;;;;;0.73;0.73;;;;;;;;;;5067540;28;20029;-73
2022/09/18 12:11:05;;;;;;;2.00;1.40;;;;;;;;;;5067200;28;20446;-73
2022/09/18 12:13:51;;;;;;;2.53;1.13;;;;;;;;;;5067210;28;20028;-75
2022/09/18 12:16:28;;;;;;;1.85;1.05;;;;;;;;;;5067133;28;20020;-72
2022/09/18 12:19:03;;;;;;;2.25;1.10;;;;;;;;;;5067266;28;20352;-72
2022/09/18 12:21:48;;;;;;;1.52;0.90;;;;;;;;;;5067142;28;20093;-74
2022/09/18 12:24:15;;;;;;;2.08;1.38;;;;;;;;;;5024013;28;20034;-73
2022/09/18 12:27:04;;;;;;;5.03;3.33;;;;;;;;;;5024677;28;20041;-75
2022/09/18 12:29:41;;;;;;;3.03;1.25;;;;;;;;;;5011669;28;20124;-74
2022/09/18 12:32:42;;;;;;;1.08;0.98;;;;;;;;;;5024768;28;20041;-73
2022/09/18 12:35:26;;;;;;;7.43;1.25;;;;;;;;;;4926919;29;20047;-74
2022/09/18 12:38:10;;;;;;;2.88;1.42;;;;;;;;;;4927357;29;20040;-73
2022/09/18 12:40:55;;;;;;;1.20;1.00;;;;;;;;;;4927526;29;20036;-74
2022/09/18 12:43:38;;;;;;;1.77;0.80;;;;;;;;;;4927478;29;20048;-72
2022/09/18 12:46:04;;;;;;;1.38;0.80;;;;;;;;;;4926720;29;20066;-74
2022/09/18 12:48:55;;;;;;;0.93;0.80;;;;;;;;;;4926884;29;20086;-73
2022/09/18 12:51:23;;;;;;;1.92;1.00;;;;;;;;;;4870089;29;20047;-76
2022/09/18 12:53:56;;;;;;;1.77;1.58;;;;;;;;;;4870519;29;20132;-73
2022/09/18 12:56:33;;;;;;;2.13;1.30;;;;;;;;;;4871089;29;20041;-74
2022/09/18 12:58:58;;;;;;;0.88;0.77;;;;;;;;;;4870306;29;20420;-74
2022/09/18 13:01:29;;;;;;;2.28;1.40;;;;;;;;;;4889907;29;20040;-74
2022/09/18 13:04:00;;;;;;;0.90;0.80;;;;;;;;;;4907875;29;20164;-77
2022/09/18 13:06:48;;;;;;;2.47;1.30;;;;;;;;;;4908270;29;20468;-73
2022/09/18 13:09:23;;;;;;;1.97;0.70;;;;;;;;;;4951309;28;20045;-73
2022/09/18 13:11:52;;;;;;;1.65;0.57;;;;;;;;;;5003921;28;20354;-73
2022/09/18 13:14:20;;;;;;;1.67;1.20;;;;;;;;;;5004213;28;20053;-74
2022/09/18 13:16:48;;;;;;;3.47;2.70;;;;;;;;;;5004426;28;20116;-74
2022/09/18 13:19:22;;;;;;;1.77;1.55;;;;;;;;;;5003960;28;20029;-75
2022/09/18 13:21:50;;;;;;;1.05;0.88;;;;;;;;;;5004539;28;20053;-73
2022/09/18 13:24:23;;;;;;;1.75;0.93;;;;;;;;;;5004346;28;20526;-73
2022/09/18 13:26:50;;;;;;;0.95;0.82;;;;;;;;;;5004095;28;20061;-78
2022/09/18 13:29:34;;;;;;;1.20;1.13;;;;;;;;;;5063539;28;20123;-75
2022/09/18 13:31:59;;;;;;;0.93;0.77;;;;;;;;;;5065872;28;20115;-74
2022/09/18 13:34:24;;;;;;;0.95;0.63;;;;;;;;;;5065633;28;20063;-74
2022/09/18 13:36:50;;;;;;;1.27;0.93;;;;;;;;;;5066008;28;20435;-73
2022/09/18 13:39:22;;;;;;;1.40;1.00;;;;;;;;;;5065543;28;20024;-73
2022/09/18 13:41:57;;;;;;;3.80;0.82;;;;;;;;;;5065765;28;20027;-74
2022/09/18 13:44:26;;;;;;;2.20;0.82;;;;;;;;;;5065821;28;20067;-73
2022/09/18 13:46:52;;;;;;;1.90;1.00;;;;;;;;;;5065724;28;20111;-73
2022/09/18 13:49:20;;;;;;;1.02;0.90;;;;;;;;;;5065490;28;20253;-75
2022/09/18 13:51:45;;;;;;;0.98;0.70;;;;;;;;;;5065821;28;20104;-80
2022/09/18 13:54:11;;;;;;;4.88;0.80;;;;;;;;;;5065378;28;20107;-77
2022/09/18 13:56:55;;;;;;;1.77;0.70;;;;;;;;;;5065941;28;20428;-75
2022/09/18 13:59:21;;;;;;;0.60;0.60;;;;;;;;;;5065846;28;20029;-73
2022/09/18 14:01:58;;;;;;;2.50;1.70;;;;;;;;;;5065628;28;20039;-74
2022/09/18 14:04:39;;;;;;;0.82;0.77;;;;;;;;;;5065531;28;20042;-73
2022/09/18 14:07:36;;;;;;;0.85;0.60;;;;;;;;;;5065558;28;20132;-73
2022/09/18 14:10:04;;;;;;;0.88;0.70;;;;;;;;;;5065185;28;20036;-73
2022/09/18 14:12:31;;;;;;;1.35;1.00;;;;;;;;;;5065614;28;20074;-75
2022/09/18 14:15:00;;;;;;;1.92;0.90;;;;;;;;;;5065649;28;20025;-73
2022/09/18 14:17:25;;;;;;;;;;;;;;;;;;5065609;28;20032;-74
2022/09/18 14:20:03;;;;;;;1.77;1.57;;;;;;;;;;5065455;28;20333;-78
2022/09/18 14:22:30;;;;;;;3.05;1.90;;;;;;;;;;5065532;28;20037;-76
2022/09/18 14:24:58;;;;;;;2.97;1.25;;;;;;;;;;5069080;28;20041;-73
2022/09/18 14:27:30;;;;;;;1.65;0.90;;;;;;;;;;5069529;28;20420;-76
2022/09/18 14:29:56;;;;;;;2.17;1.13;;;;;;;;;;5069549;28;20122;-75
2022/09/18 14:32:23;;;;;;;4.38;2.70;;;;;;;;;;5069017;28;20031;-73
2022/09/18 14:34:52;;;;;;;1.80;0.90;;;;;;;;;;5069083;28;20032;-73
2022/09/18 14:37:23;;;;;;;0.80;0.68;;;;;;;;;;5069130;28;20123;-72
2022/09/18 14:39:49;;;;;;;1.45;0.80;;;;;;;;;;5069302;28;20036;-73
2022/09/18 14:42:29;;;;;;;1.40;1.10;;;;;;;;;;5069187;28;20032;-73
2022/09/18 14:45:17;;;;;;;2.20;1.40;;;;;;;;;;5068886;28;20076;-73
2022/09/18 14:47:44;;;;;;;1.45;1.25;;;;;;;;;;5068822;28;20074;-74
2022/09/18 14:50:28;;;;;;;2.00;1.80;;;;;;;;;;5068540;28;20031;-76
2022/09/18 14:52:55;;;;;;;2.85;0.80;;;;;;;;;;5068798;28;20464;-73
2022/09/18 14:55:41;;;;;;;2.38;1.75;;;;;;;;;;5069106;28;20021;-73